Aviation Digital Data Service (ADDS)

Output produced by METARs form (0341 UTC 26 April 2019)
found at http://www.aviationweather.gov/metar/data/
 
Forecast for: AGGC (CHOISEUL BAY , SB)
Text: TAF AGGC 252310Z 2600/2624 11010KT 9999 SCT020
Forecast period: 0000 UTC 26 April 2019 to 0000 UTC 27 April 2019
Forecast type: FROM: standard forecast or significant change
Winds: from the ESE (110 degrees) at 12 MPH (10 knots; 5.1 m/s)
Visibility: 6 or more miles 10+ km)
Ceiling: at least 12,000 feet AGL
Clouds: scattered clouds at 2000 feet AGL
Weather: no significant weather forecast for this period
Text: PROB30 INTER 2602/2606 5000 TSSH BKN017 FEW018CB Q 1009 1007 1007 1009
Forecast period: 0200 to 0600 UTC 26 April 2019
Forecast type: TEMPORARY: The following changes expected for less than half the time period
Visibility: 3 miles (5 km)
Ceiling: 1700 feet AGL
Clouds: broken clouds at 1700 feet AGL
few clouds at 1800 feet AGL
Weather: SH TS  (showers, thunderstorm)